Kairin Maru — JD4078 — position and weather

sailwx.info

Track history (hours):
 
Tides and Currents Weather Stations Pressure Air Temp Water Temp Dewpoint Dewpoint Depression Visibility Wind Speed Wind Dir Waves Ship Positions

Kairin Maru

Last reported at 2018-Apr-09 02:55 UTC. Time now 2018-Jul-22 03:11 UTC.
Position N 34°39' E 135°10'.
Warning: this ship's position is months out of date.

Length 34 m; draft 4.5 m.

Type: Tug. MMSI: 431008482.

Date/timePositionNaut miles runAvg speedWind from/ knotsBaromVisibWave heightAir tempDewpointWater temp
2018-Apr-09 02:55N 34°39' E 135°10'511.0
2018-Apr-09 02:30N 34°39' E 135°15'4 7.2
2018-Apr-09 02:00N 34°42' E 135°17'0 0.0
2018-Apr-09 01:30N 34°42' E 135°17'0 0.0
2018-Apr-09 01:00N 34°42' E 135°17'2 4.9
2018-Apr-09 00:30N 34°40' E 135°15'4 8.9
2018-Apr-09 00:00N 34°39' E 135°10'  
2018-Apr-05 03:57N 34°39' E 135°10'0 0.0
2018-Apr-05 03:31N 34°39' E 135°10'0 0.0
2018-Apr-05 03:00N 34°39' E 135°10'0 0.1
2018-Apr-05 02:31N 34°39' E 135°10'1 1.0
2018-Apr-05 02:00N 34°39' E 135°10'0 0.5
2018-Apr-05 01:30N 34°38' E 135°10'1 0.0
2018-Apr-04 05:15N 34°39' E 135°11'1 4.5
2018-Apr-04 05:01N 34°38' E 135°10'0 0.1
2018-Apr-04 04:30N 34°38' E 135°10'0 0.3
2018-Apr-04 04:00N 34°38' E 135°09'0 0.0
2018-Apr-04 03:30N 34°38' E 135°09'0 0.0
2018-Apr-04 03:01N 34°38' E 135°09'0 0.1
2018-Apr-04 02:31N 34°38' E 135°09'0 0.0
2018-Apr-04 02:01N 34°38' E 135°09'0 0.0
2018-Apr-04 01:31N 34°38' E 135°09'0 0.0
2018-Apr-04 01:01N 34°38' E 135°09'0 0.0
2018-Apr-04 00:31N 34°38' E 135°09'0 0.0
2018-Apr-04 00:00N 34°38' E 135°09'0 0.0
2018-Apr-03 23:31N 34°38' E 135°09'0 0.0
2018-Apr-03 23:01N 34°38' E 135°09'0 0.0
2018-Apr-03 22:30N 34°38' E 135°09'0 0.0
2018-Apr-03 22:01N 34°38' E 135°09'0 0.0
2018-Apr-03 21:31N 34°38' E 135°09'0 0.0
2018-Apr-03 21:00N 34°38' E 135°09'0 0.0
2018-Apr-03 20:31N 34°38' E 135°09'0 0.1
2018-Apr-03 20:01N 34°38' E 135°09'0 0.0
2018-Apr-03 19:31N 34°38' E 135°09'0 0.0
2018-Apr-03 19:00N 34°38' E 135°09'0 0.0
2018-Apr-03 18:30N 34°38' E 135°09'0 0.0
2018-Apr-03 18:00N 34°38' E 135°09'0 0.0
2018-Apr-03 17:31N 34°38' E 135°09'0 0.0
2018-Apr-03 16:59N 34°38' E 135°09'0 0.0
2018-Apr-03 16:30N 34°38' E 135°09'0 0.1
2018-Apr-03 16:01N 34°38' E 135°09'0 0.0
2018-Apr-03 15:30N 34°38' E 135°09'0 0.0
2018-Apr-03 15:01N 34°38' E 135°09'0 0.0
2018-Apr-03 14:31N 34°38' E 135°09'0 0.0
2018-Apr-03 14:00N 34°38' E 135°09'0 0.0
2018-Apr-03 13:30N 34°38' E 135°09'0 0.0
2018-Apr-03 13:00N 34°38' E 135°09'0 0.2
2018-Apr-03 12:30N 34°38' E 135°09'4 9.0
2018-Apr-03 12:00N 34°36' E 135°05'4 7.5
2018-Apr-03 11:31N 34°37' E 135°00'4 8.4
2018-Apr-03 11:01N 34°36' E 134°56'510.1
2018-Apr-03 10:30N 34°34' E 134°50'611.1
2018-Apr-03 10:01N 34°31' E 134°44'611.4
2018-Apr-03 09:31N 34°29' E 134°37'611.4
2018-Apr-03 09:00N 34°27' E 134°31'1311.4
2018-Apr-03 07:51N 34°24' E 134°15'612.1
2018-Apr-03 07:19N 34°26' E 134°08'7211.3
2018-Apr-03 00:56N 34°01' E 132°46'512.6
2018-Apr-03 00:30N 33°57' E 132°42'2211.6
2018-Apr-02 22:37N 33°45' E 132°21'211.3
2018-Apr-02 22:25N 33°44' E 132°18'511.0
2018-Apr-02 22:00N 33°43' E 132°13'1110.4
2018-Apr-02 20:58N 33°43' E 131°60'510.4
2018-Apr-02 20:29N 33°44' E 131°54'510.9
2018-Apr-02 20:00N 33°45' E 131°47'511.2
2018-Apr-02 19:30N 33°46' E 131°41'611.5
2018-Apr-02 19:00N 33°47' E 131°34'611.5
2018-Apr-02 18:30N 33°48' E 131°27'611.5
2018-Apr-02 18:00N 33°49' E 131°21'611.6
2018-Apr-02 17:30N 33°51' E 131°14'611.4
2018-Apr-02 17:01N 33°53' E 131°08'611.3
2018-Apr-02 16:30N 33°57' E 131°03'4 8.6
2018-Apr-02 16:00N 33°57' E 130°57'4 8.3
2018-Apr-02 15:30N 33°54' E 130°54'4 7.8
2018-Apr-02 15:00N 33°58' E 130°52'5 9.8
2018-Apr-02 14:30N 34°02' E 130°51'510.4
2018-Apr-02 14:00N 34°07' E 130°50'510.6
2018-Apr-02 13:31N 34°13' E 130°50'510.7
2018-Apr-02 13:01N 34°18' E 130°49'510.4
2018-Apr-02 12:30N 34°23' E 130°49'  
Track history (hours):
 
Tides and Currents Weather Stations Pressure Air Temp Water Temp Dewpoint Dewpoint Depression Visibility Wind Speed Wind Dir Waves Ship Positions

Kairin Maru

Last reported at 2018-Apr-09 02:55 UTC. Time now 2018-Jul-22 03:11 UTC.
Position N 34°39' E 135°10'.
Warning: this ship's position is months out of date.

Length 34 m; draft 4.5 m.

Type: Tug. MMSI: 431008482.

Date/timePositionNaut miles runAvg speedWind from/ knotsBaromVisibWave heightAir tempDewpointWater temp
2018-Apr-09 02:55N 34°39' E 135°10'511.0
2018-Apr-09 02:30N 34°39' E 135°15'4 7.2
2018-Apr-09 02:00N 34°42' E 135°17'0 0.0
2018-Apr-09 01:30N 34°42' E 135°17'0 0.0
2018-Apr-09 01:00N 34°42' E 135°17'2 4.9
2018-Apr-09 00:30N 34°40' E 135°15'4 8.9
2018-Apr-09 00:00N 34°39' E 135°10'  
2018-Apr-05 03:57N 34°39' E 135°10'0 0.0
2018-Apr-05 03:31N 34°39' E 135°10'0 0.0
2018-Apr-05 03:00N 34°39' E 135°10'0 0.1
2018-Apr-05 02:31N 34°39' E 135°10'1 1.0
2018-Apr-05 02:00N 34°39' E 135°10'0 0.5
2018-Apr-05 01:30N 34°38' E 135°10'1 0.0
2018-Apr-04 05:15N 34°39' E 135°11'1 4.5
2018-Apr-04 05:01N 34°38' E 135°10'0 0.1
2018-Apr-04 04:30N 34°38' E 135°10'0 0.3
2018-Apr-04 04:00N 34°38' E 135°09'0 0.0
2018-Apr-04 03:30N 34°38' E 135°09'0 0.0
2018-Apr-04 03:01N 34°38' E 135°09'0 0.1
2018-Apr-04 02:31N 34°38' E 135°09'0 0.0
2018-Apr-04 02:01N 34°38' E 135°09'0 0.0
2018-Apr-04 01:31N 34°38' E 135°09'0 0.0
2018-Apr-04 01:01N 34°38' E 135°09'0 0.0
2018-Apr-04 00:31N 34°38' E 135°09'0 0.0
2018-Apr-04 00:00N 34°38' E 135°09'0 0.0
2018-Apr-03 23:31N 34°38' E 135°09'0 0.0
2018-Apr-03 23:01N 34°38' E 135°09'0 0.0
2018-Apr-03 22:30N 34°38' E 135°09'0 0.0
2018-Apr-03 22:01N 34°38' E 135°09'0 0.0
2018-Apr-03 21:31N 34°38' E 135°09'0 0.0
2018-Apr-03 21:00N 34°38' E 135°09'0 0.0
2018-Apr-03 20:31N 34°38' E 135°09'0 0.1
2018-Apr-03 20:01N 34°38' E 135°09'0 0.0
2018-Apr-03 19:31N 34°38' E 135°09'0 0.0
2018-Apr-03 19:00N 34°38' E 135°09'0 0.0
2018-Apr-03 18:30N 34°38' E 135°09'0 0.0
2018-Apr-03 18:00N 34°38' E 135°09'0 0.0
2018-Apr-03 17:31N 34°38' E 135°09'0 0.0
2018-Apr-03 16:59N 34°38' E 135°09'0 0.0
2018-Apr-03 16:30N 34°38' E 135°09'0 0.1
2018-Apr-03 16:01N 34°38' E 135°09'0 0.0
2018-Apr-03 15:30N 34°38' E 135°09'0 0.0
2018-Apr-03 15:01N 34°38' E 135°09'0 0.0
2018-Apr-03 14:31N 34°38' E 135°09'0 0.0
2018-Apr-03 14:00N 34°38' E 135°09'0 0.0
2018-Apr-03 13:30N 34°38' E 135°09'0 0.0
2018-Apr-03 13:00N 34°38' E 135°09'0 0.2
2018-Apr-03 12:30N 34°38' E 135°09'4 9.0
2018-Apr-03 12:00N 34°36' E 135°05'4 7.5
2018-Apr-03 11:31N 34°37' E 135°00'4 8.4
2018-Apr-03 11:01N 34°36' E 134°56'510.1
2018-Apr-03 10:30N 34°34' E 134°50'611.1
2018-Apr-03 10:01N 34°31' E 134°44'611.4
2018-Apr-03 09:31N 34°29' E 134°37'611.4
2018-Apr-03 09:00N 34°27' E 134°31'1311.4
2018-Apr-03 07:51N 34°24' E 134°15'612.1
2018-Apr-03 07:19N 34°26' E 134°08'7211.3
2018-Apr-03 00:56N 34°01' E 132°46'512.6
2018-Apr-03 00:30N 33°57' E 132°42'2211.6
2018-Apr-02 22:37N 33°45' E 132°21'211.3
2018-Apr-02 22:25N 33°44' E 132°18'511.0
2018-Apr-02 22:00N 33°43' E 132°13'1110.4
2018-Apr-02 20:58N 33°43' E 131°60'510.4
2018-Apr-02 20:29N 33°44' E 131°54'510.9
2018-Apr-02 20:00N 33°45' E 131°47'511.2
2018-Apr-02 19:30N 33°46' E 131°41'611.5
2018-Apr-02 19:00N 33°47' E 131°34'611.5
2018-Apr-02 18:30N 33°48' E 131°27'611.5
2018-Apr-02 18:00N 33°49' E 131°21'611.6
2018-Apr-02 17:30N 33°51' E 131°14'611.4
2018-Apr-02 17:01N 33°53' E 131°08'611.3
2018-Apr-02 16:30N 33°57' E 131°03'4 8.6
2018-Apr-02 16:00N 33°57' E 130°57'4 8.3
2018-Apr-02 15:30N 33°54' E 130°54'4 7.8
2018-Apr-02 15:00N 33°58' E 130°52'5 9.8
2018-Apr-02 14:30N 34°02' E 130°51'510.4
2018-Apr-02 14:00N 34°07' E 130°50'510.6
2018-Apr-02 13:31N 34°13' E 130°50'510.7
2018-Apr-02 13:01N 34°18' E 130°49'510.4
2018-Apr-02 12:30N 34°23' E 130°49'  

Dump ship's entire track history